sensor_id;sensor_type;location;lat;lon;timestamp;P1;durP1;ratioP1;P2;durP2;ratioP2
6249;SDS011;3158;52.148;11.568;2023-10-13T00:02:28;5.88;;;4.05;;
6249;SDS011;3158;52.148;11.568;2023-10-13T00:07:29;5.95;;;4.00;;
6249;SDS011;3158;52.148;11.568;2023-10-13T00:12:30;8.63;;;5.72;;
6249;SDS011;3158;52.148;11.568;2023-10-13T00:17:31;4.65;;;3.67;;
6249;SDS011;3158;52.148;11.568;2023-10-13T00:22:32;5.70;;;4.28;;
6249;SDS011;3158;52.148;11.568;2023-10-13T00:27:35;6.70;;;4.60;;
6249;SDS011;3158;52.148;11.568;2023-10-13T00:32:42;7.57;;;4.78;;
6249;SDS011;3158;52.148;11.568;2023-10-13T00:37:43;13.50;;;5.45;;
6249;SDS011;3158;52.148;11.568;2023-10-13T00:42:44;5.63;;;5.03;;
6249;SDS011;3158;52.148;11.568;2023-10-13T00:47:52;4.95;;;4.15;;
6249;SDS011;3158;52.148;11.568;2023-10-13T00:52:57;7.25;;;4.80;;
6249;SDS011;3158;52.148;11.568;2023-10-13T00:57:59;11.57;;;6.63;;
6249;SDS011;3158;52.148;11.568;2023-10-13T01:03:04;9.98;;;4.90;;
6249;SDS011;3158;52.148;11.568;2023-10-13T01:08:08;21.33;;;8.20;;
6249;SDS011;3158;52.148;11.568;2023-10-13T01:13:10;7.75;;;5.65;;
6249;SDS011;3158;52.148;11.568;2023-10-13T01:18:11;8.70;;;5.65;;
6249;SDS011;3158;52.148;11.568;2023-10-13T01:23:14;6.63;;;5.80;;
6249;SDS011;3158;52.148;11.568;2023-10-13T01:28:28;7.72;;;5.72;;
6249;SDS011;3158;52.148;11.568;2023-10-13T01:33:29;10.68;;;6.38;;
6249;SDS011;3158;52.148;11.568;2023-10-13T01:38:32;12.68;;;6.55;;
6249;SDS011;3158;52.148;11.568;2023-10-13T01:43:33;8.60;;;6.20;;
6249;SDS011;3158;52.148;11.568;2023-10-13T01:48:35;8.75;;;6.68;;
6249;SDS011;3158;52.148;11.568;2023-10-13T01:53:40;13.82;;;6.38;;
6249;SDS011;3158;52.148;11.568;2023-10-13T01:58:41;14.25;;;7.78;;
6249;SDS011;3158;52.148;11.568;2023-10-13T02:03:42;10.48;;;7.55;;
6249;SDS011;3158;52.148;11.568;2023-10-13T02:08:48;12.35;;;7.43;;
6249;SDS011;3158;52.148;11.568;2023-10-13T02:13:51;15.52;;;7.70;;
6249;SDS011;3158;52.148;11.568;2023-10-13T02:18:54;19.70;;;8.32;;
6249;SDS011;3158;52.148;11.568;2023-10-13T02:23:55;10.20;;;8.00;;
6249;SDS011;3158;52.148;11.568;2023-10-13T02:29:05;14.48;;;7.82;;
6249;SDS011;3158;52.148;11.568;2023-10-13T02:34:12;12.90;;;7.72;;
6249;SDS011;3158;52.148;11.568;2023-10-13T02:39:14;11.48;;;7.60;;
6249;SDS011;3158;52.148;11.568;2023-10-13T02:44:25;10.40;;;7.38;;
6249;SDS011;3158;52.148;11.568;2023-10-13T02:49:31;12.23;;;7.63;;
6249;SDS011;3158;52.148;11.568;2023-10-13T02:54:34;9.50;;;7.15;;
6249;SDS011;3158;52.148;11.568;2023-10-13T02:59:41;9.30;;;7.30;;
6249;SDS011;3158;52.148;11.568;2023-10-13T03:04:52;10.10;;;7.43;;
6249;SDS011;3158;52.148;11.568;2023-10-13T03:10:00;9.95;;;7.40;;
6249;SDS011;3158;52.148;11.568;2023-10-13T03:15:10;7.43;;;6.47;;
6249;SDS011;3158;52.148;11.568;2023-10-13T03:20:17;12.27;;;6.85;;
6249;SDS011;3158;52.148;11.568;2023-10-13T03:25:25;10.20;;;6.90;;
6249;SDS011;3158;52.148;11.568;2023-10-13T03:30:29;10.63;;;6.78;;
6249;SDS011;3158;52.148;11.568;2023-10-13T03:35:38;7.10;;;6.10;;
6249;SDS011;3158;52.148;11.568;2023-10-13T03:40:45;10.35;;;6.82;;
6249;SDS011;3158;52.148;11.568;2023-10-13T03:45:56;8.30;;;5.95;;
6249;SDS011;3158;52.148;11.568;2023-10-13T03:51:08;9.45;;;6.18;;
6249;SDS011;3158;52.148;11.568;2023-10-13T03:56:15;9.50;;;6.55;;
6249;SDS011;3158;52.148;11.568;2023-10-13T04:01:26;7.53;;;6.20;;
6249;SDS011;3158;52.148;11.568;2023-10-13T04:06:45;9.40;;;6.95;;
6249;SDS011;3158;52.148;11.568;2023-10-13T04:11:46;6.80;;;6.00;;
6249;SDS011;3158;52.148;11.568;2023-10-13T04:17:03;8.80;;;6.28;;
6249;SDS011;3158;52.148;11.568;2023-10-13T04:22:12;9.50;;;6.43;;
6249;SDS011;3158;52.148;11.568;2023-10-13T04:27:20;8.93;;;6.82;;
6249;SDS011;3158;52.148;11.568;2023-10-13T04:32:54;8.30;;;6.40;;
6249;SDS011;3158;52.148;11.568;2023-10-13T04:38:27;9.10;;;6.38;;
6249;SDS011;3158;52.148;11.568;2023-10-13T04:43:35;7.85;;;6.68;;
6249;SDS011;3158;52.148;11.568;2023-10-13T04:48:55;10.80;;;6.22;;
6249;SDS011;3158;52.148;11.568;2023-10-13T04:54:00;7.35;;;6.20;;
6249;SDS011;3158;52.148;11.568;2023-10-13T04:59:10;8.50;;;5.45;;
6249;SDS011;3158;52.148;11.568;2023-10-13T05:04:18;5.82;;;5.32;;
6249;SDS011;3158;52.148;11.568;2023-10-13T05:09:30;7.25;;;6.53;;
6249;SDS011;3158;52.148;11.568;2023-10-13T05:14:50;6.55;;;5.90;;
6249;SDS011;3158;52.148;11.568;2023-10-13T05:20:09;11.48;;;6.10;;
6249;SDS011;3158;52.148;11.568;2023-10-13T05:25:29;7.32;;;5.97;;
6249;SDS011;3158;52.148;11.568;2023-10-13T05:30:49;6.65;;;5.95;;
6249;SDS011;3158;52.148;11.568;2023-10-13T05:36:10;9.32;;;5.00;;
6249;SDS011;3158;52.148;11.568;2023-10-13T05:41:30;7.78;;;5.57;;
6249;SDS011;3158;52.148;11.568;2023-10-13T05:46:50;9.18;;;6.00;;
6249;SDS011;3158;52.148;11.568;2023-10-13T05:52:10;8.50;;;5.55;;
6249;SDS011;3158;52.148;11.568;2023-10-13T05:57:31;7.47;;;6.15;;
6249;SDS011;3158;52.148;11.568;2023-10-13T06:02:51;8.18;;;6.03;;
6249;SDS011;3158;52.148;11.568;2023-10-13T06:08:10;13.40;;;6.15;;
6249;SDS011;3158;52.148;11.568;2023-10-13T06:13:30;6.57;;;5.97;;
6249;SDS011;3158;52.148;11.568;2023-10-13T06:18:50;7.65;;;5.43;;
6249;SDS011;3158;52.148;11.568;2023-10-13T06:24:10;7.00;;;5.13;;
6249;SDS011;3158;52.148;11.568;2023-10-13T06:29:29;10.50;;;5.57;;
6249;SDS011;3158;52.148;11.568;2023-10-13T06:34:30;11.13;;;6.03;;
6249;SDS011;3158;52.148;11.568;2023-10-13T06:39:37;7.45;;;6.35;;
6249;SDS011;3158;52.148;11.568;2023-10-13T06:44:38;5.60;;;5.10;;
6249;SDS011;3158;52.148;11.568;2023-10-13T06:49:40;9.93;;;5.28;;
6249;SDS011;3158;52.148;11.568;2023-10-13T06:54:43;5.20;;;4.70;;
6249;SDS011;3158;52.148;11.568;2023-10-13T06:59:45;6.55;;;4.95;;
6249;SDS011;3158;52.148;11.568;2023-10-13T07:04:46;6.15;;;5.10;;
6249;SDS011;3158;52.148;11.568;2023-10-13T07:09:47;6.03;;;5.47;;
6249;SDS011;3158;52.148;11.568;2023-10-13T07:14:58;8.27;;;5.60;;
6249;SDS011;3158;52.148;11.568;2023-10-13T07:20:11;5.35;;;4.88;;
6249;SDS011;3158;52.148;11.568;2023-10-13T07:25:15;9.25;;;5.53;;
6249;SDS011;3158;52.148;11.568;2023-10-13T07:30:24;8.52;;;5.20;;
6249;SDS011;3158;52.148;11.568;2023-10-13T07:35:28;5.85;;;5.18;;
6249;SDS011;3158;52.148;11.568;2023-10-13T07:40:31;8.77;;;5.10;;
6249;SDS011;3158;52.148;11.568;2023-10-13T07:45:38;5.88;;;5.30;;
6249;SDS011;3158;52.148;11.568;2023-10-13T07:50:40;5.43;;;4.97;;
6249;SDS011;3158;52.148;11.568;2023-10-13T07:55:41;7.03;;;5.43;;
6249;SDS011;3158;52.148;11.568;2023-10-13T08:00:42;6.10;;;4.63;;
6249;SDS011;3158;52.148;11.568;2023-10-13T08:05:43;4.85;;;4.43;;
6249;SDS011;3158;52.148;11.568;2023-10-13T08:11:06;6.53;;;4.55;;
6249;SDS011;3158;52.148;11.568;2023-10-13T08:16:23;4.60;;;3.95;;
6249;SDS011;3158;52.148;11.568;2023-10-13T08:21:44;4.68;;;4.07;;
6249;SDS011;3158;52.148;11.568;2023-10-13T08:26:51;8.07;;;4.32;;
6249;SDS011;3158;52.148;11.568;2023-10-13T08:31:59;5.03;;;4.57;;
6249;SDS011;3158;52.148;11.568;2023-10-13T08:37:24;4.97;;;4.43;;
6249;SDS011;3158;52.148;11.568;2023-10-13T08:42:26;5.07;;;4.60;;
6249;SDS011;3158;52.148;11.568;2023-10-13T08:47:41;4.70;;;4.30;;
6249;SDS011;3158;52.148;11.568;2023-10-13T08:52:53;5.47;;;4.18;;
6249;SDS011;3158;52.148;11.568;2023-10-13T08:57:56;4.32;;;4.00;;
6249;SDS011;3158;52.148;11.568;2023-10-13T09:03:13;4.85;;;4.03;;
6249;SDS011;3158;52.148;11.568;2023-10-13T09:08:30;4.15;;;3.78;;
6249;SDS011;3158;52.148;11.568;2023-10-13T09:13:50;5.07;;;4.40;;
6249;SDS011;3158;52.148;11.568;2023-10-13T09:18:52;6.40;;;3.83;;
6249;SDS011;3158;52.148;11.568;2023-10-13T09:23:53;6.93;;;4.60;;
6249;SDS011;3158;52.148;11.568;2023-10-13T09:29:20;4.68;;;3.90;;
6249;SDS011;3158;52.148;11.568;2023-10-13T09:34:21;4.03;;;3.83;;
6249;SDS011;3158;52.148;11.568;2023-10-13T09:39:24;7.07;;;4.32;;
6249;SDS011;3158;52.148;11.568;2023-10-13T09:44:55;4.05;;;3.45;;
6249;SDS011;3158;52.148;11.568;2023-10-13T09:49:59;4.18;;;3.75;;
6249;SDS011;3158;52.148;11.568;2023-10-13T09:55:13;4.10;;;3.67;;
6249;SDS011;3158;52.148;11.568;2023-10-13T10:00:19;4.80;;;4.03;;
6249;SDS011;3158;52.148;11.568;2023-10-13T10:05:56;3.60;;;3.30;;
6249;SDS011;3158;52.148;11.568;2023-10-13T10:16:10;3.63;;;3.33;;
6249;SDS011;3158;52.148;11.568;2023-10-13T10:21:14;5.40;;;3.13;;
6249;SDS011;3158;52.148;11.568;2023-10-13T10:26:16;2.97;;;2.78;;
6249;SDS011;3158;52.148;11.568;2023-10-13T10:31:21;4.28;;;2.65;;
6249;SDS011;3158;52.148;11.568;2023-10-13T10:36:35;2.63;;;2.15;;
6249;SDS011;3158;52.148;11.568;2023-10-13T10:41:36;3.78;;;2.63;;
6249;SDS011;3158;52.148;11.568;2023-10-13T10:46:54;3.03;;;2.20;;
6249;SDS011;3158;52.148;11.568;2023-10-13T10:51:59;1.90;;;1.80;;
6249;SDS011;3158;52.148;11.568;2023-10-13T10:57:04;5.55;;;2.25;;
6249;SDS011;3158;52.148;11.568;2023-10-13T11:02:12;2.33;;;2.00;;
6249;SDS011;3158;52.148;11.568;2023-10-13T11:07:24;2.33;;;2.13;;
6249;SDS011;3158;52.148;11.568;2023-10-13T11:12:27;3.67;;;1.83;;
6249;SDS011;3158;52.148;11.568;2023-10-13T11:17:28;4.55;;;2.15;;
6249;SDS011;3158;52.148;11.568;2023-10-13T11:22:48;2.10;;;1.90;;
6249;SDS011;3158;52.148;11.568;2023-10-13T11:27:50;5.00;;;1.58;;
6249;SDS011;3158;52.148;11.568;2023-10-13T11:33:02;1.95;;;1.80;;
6249;SDS011;3158;52.148;11.568;2023-10-13T11:38:05;3.33;;;1.75;;
6249;SDS011;3158;52.148;11.568;2023-10-13T11:43:14;5.72;;;1.85;;
6249;SDS011;3158;52.148;11.568;2023-10-13T11:48:15;4.68;;;1.80;;
6249;SDS011;3158;52.148;11.568;2023-10-13T11:53:17;3.97;;;1.85;;
6249;SDS011;3158;52.148;11.568;2023-10-13T11:58:18;3.28;;;1.67;;
6249;SDS011;3158;52.148;11.568;2023-10-13T12:03:19;4.22;;;2.10;;
6249;SDS011;3158;52.148;11.568;2023-10-13T12:08:38;3.22;;;1.75;;
6249;SDS011;3158;52.148;11.568;2023-10-13T12:13:49;5.63;;;2.08;;
6249;SDS011;3158;52.148;11.568;2023-10-13T12:18:50;2.65;;;2.00;;
6249;SDS011;3158;52.148;11.568;2023-10-13T12:23:53;4.63;;;2.10;;
6249;SDS011;3158;52.148;11.568;2023-10-13T12:28:54;5.75;;;1.90;;
6249;SDS011;3158;52.148;11.568;2023-10-13T12:34:06;2.45;;;1.77;;
6249;SDS011;3158;52.148;11.568;2023-10-13T12:39:14;2.28;;;1.98;;
6249;SDS011;3158;52.148;11.568;2023-10-13T12:44:33;2.75;;;2.25;;
6249;SDS011;3158;52.148;11.568;2023-10-13T12:49:53;1.92;;;1.75;;
6249;SDS011;3158;52.148;11.568;2023-10-13T12:55:08;2.22;;;1.95;;
6249;SDS011;3158;52.148;11.568;2023-10-13T13:00:14;4.38;;;2.10;;
6249;SDS011;3158;52.148;11.568;2023-10-13T13:05:23;5.57;;;2.20;;
6249;SDS011;3158;52.148;11.568;2023-10-13T13:10:28;3.30;;;1.80;;
6249;SDS011;3158;52.148;11.568;2023-10-13T13:15:35;4.60;;;2.42;;
6249;SDS011;3158;52.148;11.568;2023-10-13T13:20:36;4.63;;;1.73;;
6249;SDS011;3158;52.148;11.568;2023-10-13T13:25:39;6.20;;;2.70;;
6249;SDS011;3158;52.148;11.568;2023-10-13T13:30:42;3.85;;;2.08;;
6249;SDS011;3158;52.148;11.568;2023-10-13T13:35:43;1.98;;;1.70;;
6249;SDS011;3158;52.148;11.568;2023-10-13T13:40:49;2.42;;;1.77;;
6249;SDS011;3158;52.148;11.568;2023-10-13T13:45:54;7.10;;;2.28;;
6249;SDS011;3158;52.148;11.568;2023-10-13T13:51:07;2.20;;;1.70;;
6249;SDS011;3158;52.148;11.568;2023-10-13T13:56:14;2.28;;;1.88;;
6249;SDS011;3158;52.148;11.568;2023-10-13T14:01:19;4.43;;;2.20;;
6249;SDS011;3158;52.148;11.568;2023-10-13T14:06:25;3.03;;;2.47;;
6249;SDS011;3158;52.148;11.568;2023-10-13T14:11:30;2.15;;;1.65;;
6249;SDS011;3158;52.148;11.568;2023-10-13T14:16:41;3.15;;;1.63;;
6249;SDS011;3158;52.148;11.568;2023-10-13T14:21:47;3.95;;;1.90;;
6249;SDS011;3158;52.148;11.568;2023-10-13T14:26:54;4.10;;;2.65;;
6249;SDS011;3158;52.148;11.568;2023-10-13T14:31:55;1.80;;;1.70;;
6249;SDS011;3158;52.148;11.568;2023-10-13T14:36:56;3.55;;;1.80;;
6249;SDS011;3158;52.148;11.568;2023-10-13T14:41:57;4.70;;;2.40;;
6249;SDS011;3158;52.148;11.568;2023-10-13T14:47:00;3.53;;;2.47;;
6249;SDS011;3158;52.148;11.568;2023-10-13T14:52:01;7.38;;;2.60;;
6249;SDS011;3158;52.148;11.568;2023-10-13T14:57:03;2.40;;;2.30;;
6249;SDS011;3158;52.148;11.568;2023-10-13T15:02:04;4.45;;;2.85;;
6249;SDS011;3158;52.148;11.568;2023-10-13T15:07:05;7.32;;;2.42;;
6249;SDS011;3158;52.148;11.568;2023-10-13T15:12:06;3.17;;;2.17;;
6249;SDS011;3158;52.148;11.568;2023-10-13T15:17:10;3.42;;;2.40;;
6249;SDS011;3158;52.148;11.568;2023-10-13T15:22:16;2.53;;;2.20;;
6249;SDS011;3158;52.148;11.568;2023-10-13T15:27:21;3.22;;;2.03;;
6249;SDS011;3158;52.148;11.568;2023-10-13T15:32:23;3.25;;;2.63;;
6249;SDS011;3158;52.148;11.568;2023-10-13T15:37:56;8.27;;;2.53;;
6249;SDS011;3158;52.148;11.568;2023-10-13T15:42:57;2.45;;;2.22;;
6249;SDS011;3158;52.148;11.568;2023-10-13T15:47:59;5.15;;;2.53;;
6249;SDS011;3158;52.148;11.568;2023-10-13T15:53:05;5.25;;;2.38;;
6249;SDS011;3158;52.148;11.568;2023-10-13T15:58:06;2.35;;;2.10;;
6249;SDS011;3158;52.148;11.568;2023-10-13T16:03:07;3.03;;;2.40;;
6249;SDS011;3158;52.148;11.568;2023-10-13T16:08:11;7.40;;;2.45;;
6249;SDS011;3158;52.148;11.568;2023-10-13T16:13:12;8.27;;;2.53;;
6249;SDS011;3158;52.148;11.568;2023-10-13T16:18:18;2.67;;;2.47;;
6249;SDS011;3158;52.148;11.568;2023-10-13T16:23:22;10.98;;;2.90;;
6249;SDS011;3158;52.148;11.568;2023-10-13T16:28:24;3.75;;;2.47;;
6249;SDS011;3158;52.148;11.568;2023-10-13T16:33:25;6.95;;;2.97;;
6249;SDS011;3158;52.148;11.568;2023-10-13T16:38:28;2.85;;;2.70;;
6249;SDS011;3158;52.148;11.568;2023-10-13T16:43:29;3.85;;;2.58;;
6249;SDS011;3158;52.148;11.568;2023-10-13T16:48:33;7.25;;;2.55;;
6249;SDS011;3158;52.148;11.568;2023-10-13T16:53:34;2.92;;;2.83;;
6249;SDS011;3158;52.148;11.568;2023-10-13T16:58:36;3.10;;;2.40;;
6249;SDS011;3158;52.148;11.568;2023-10-13T17:03:41;2.65;;;2.47;;
6249;SDS011;3158;52.148;11.568;2023-10-13T17:08:45;3.05;;;2.25;;
6249;SDS011;3158;52.148;11.568;2023-10-13T17:13:47;5.55;;;2.35;;
6249;SDS011;3158;52.148;11.568;2023-10-13T17:18:49;2.33;;;2.22;;
6249;SDS011;3158;52.148;11.568;2023-10-13T17:23:51;8.15;;;2.72;;
6249;SDS011;3158;52.148;11.568;2023-10-13T17:28:53;4.30;;;2.30;;
6249;SDS011;3158;52.148;11.568;2023-10-13T17:33:55;5.97;;;2.75;;
6249;SDS011;3158;52.148;11.568;2023-10-13T17:38:58;2.53;;;2.33;;
6249;SDS011;3158;52.148;11.568;2023-10-13T17:44:00;4.90;;;2.60;;
6249;SDS011;3158;52.148;11.568;2023-10-13T17:49:02;5.25;;;2.58;;
6249;SDS011;3158;52.148;11.568;2023-10-13T17:54:04;2.80;;;2.70;;
6249;SDS011;3158;52.148;11.568;2023-10-13T17:59:06;2.90;;;2.50;;
6249;SDS011;3158;52.148;11.568;2023-10-13T18:04:07;3.60;;;2.22;;
6249;SDS011;3158;52.148;11.568;2023-10-13T18:09:10;3.78;;;3.35;;
6249;SDS011;3158;52.148;11.568;2023-10-13T18:14:11;3.85;;;2.97;;
6249;SDS011;3158;52.148;11.568;2023-10-13T18:19:12;7.88;;;3.00;;
6249;SDS011;3158;52.148;11.568;2023-10-13T18:24:14;3.83;;;3.42;;
6249;SDS011;3158;52.148;11.568;2023-10-13T18:29:15;4.20;;;3.90;;
6249;SDS011;3158;52.148;11.568;2023-10-13T18:34:17;2.63;;;2.53;;
6249;SDS011;3158;52.148;11.568;2023-10-13T18:39:18;3.42;;;2.70;;
6249;SDS011;3158;52.148;11.568;2023-10-13T18:44:20;4.30;;;2.67;;
6249;SDS011;3158;52.148;11.568;2023-10-13T18:49:23;5.10;;;2.67;;
6249;SDS011;3158;52.148;11.568;2023-10-13T18:54:25;6.10;;;2.38;;
6249;SDS011;3158;52.148;11.568;2023-10-13T18:59:26;4.30;;;2.40;;
6249;SDS011;3158;52.148;11.568;2023-10-13T19:04:27;2.22;;;1.70;;
6249;SDS011;3158;52.148;11.568;2023-10-13T19:09:28;2.03;;;1.88;;
6249;SDS011;3158;52.148;11.568;2023-10-13T19:14:29;3.33;;;2.35;;
6249;SDS011;3158;52.148;11.568;2023-10-13T19:19:32;2.40;;;2.30;;
6249;SDS011;3158;52.148;11.568;2023-10-13T19:24:34;3.50;;;2.28;;
6249;SDS011;3158;52.148;11.568;2023-10-13T19:29:35;4.82;;;2.35;;
6249;SDS011;3158;52.148;11.568;2023-10-13T19:34:36;2.60;;;2.42;;
6249;SDS011;3158;52.148;11.568;2023-10-13T19:39:42;4.03;;;2.60;;
6249;SDS011;3158;52.148;11.568;2023-10-13T19:44:43;2.67;;;2.17;;
6249;SDS011;3158;52.148;11.568;2023-10-13T19:49:45;4.03;;;1.95;;
6249;SDS011;3158;52.148;11.568;2023-10-13T19:54:46;5.70;;;2.20;;
6249;SDS011;3158;52.148;11.568;2023-10-13T19:59:47;2.17;;;1.98;;
6249;SDS011;3158;52.148;11.568;2023-10-13T20:04:48;2.42;;;2.22;;
6249;SDS011;3158;52.148;11.568;2023-10-13T20:09:52;7.20;;;2.63;;
6249;SDS011;3158;52.148;11.568;2023-10-13T20:14:54;2.47;;;2.20;;
6249;SDS011;3158;52.148;11.568;2023-10-13T20:19:55;2.20;;;2.10;;
6249;SDS011;3158;52.148;11.568;2023-10-13T20:24:59;3.63;;;2.28;;
6249;SDS011;3158;52.148;11.568;2023-10-13T20:30:01;2.33;;;2.13;;
6249;SDS011;3158;52.148;11.568;2023-10-13T20:35:08;3.25;;;2.40;;
6249;SDS011;3158;52.148;11.568;2023-10-13T20:40:09;2.08;;;1.95;;
6249;SDS011;3158;52.148;11.568;2023-10-13T20:45:19;2.25;;;2.05;;
6249;SDS011;3158;52.148;11.568;2023-10-13T20:50:24;2.30;;;2.20;;
6249;SDS011;3158;52.148;11.568;2023-10-13T20:55:25;2.50;;;2.15;;
6249;SDS011;3158;52.148;11.568;2023-10-13T21:00:26;3.60;;;2.33;;
6249;SDS011;3158;52.148;11.568;2023-10-13T21:05:30;7.45;;;2.10;;
6249;SDS011;3158;52.148;11.568;2023-10-13T21:10:32;2.22;;;2.00;;
6249;SDS011;3158;52.148;11.568;2023-10-13T21:15:38;2.38;;;2.28;;
6249;SDS011;3158;52.148;11.568;2023-10-13T21:20:39;2.45;;;2.25;;
6249;SDS011;3158;52.148;11.568;2023-10-13T21:25:41;3.38;;;2.22;;
6249;SDS011;3158;52.148;11.568;2023-10-13T21:30:42;2.90;;;2.10;;
6249;SDS011;3158;52.148;11.568;2023-10-13T21:35:43;3.72;;;2.40;;
6249;SDS011;3158;52.148;11.568;2023-10-13T21:40:44;6.90;;;1.92;;
6249;SDS011;3158;52.148;11.568;2023-10-13T21:45:45;3.28;;;2.30;;
6249;SDS011;3158;52.148;11.568;2023-10-13T21:50:46;2.20;;;2.10;;
6249;SDS011;3158;52.148;11.568;2023-10-13T21:55:48;2.58;;;1.83;;
6249;SDS011;3158;52.148;11.568;2023-10-13T22:00:50;2.88;;;2.53;;
6249;SDS011;3158;52.148;11.568;2023-10-13T22:05:56;3.72;;;2.00;;
6249;SDS011;3158;52.148;11.568;2023-10-13T22:11:00;3.83;;;2.40;;
6249;SDS011;3158;52.148;11.568;2023-10-13T22:16:03;2.63;;;2.42;;
6249;SDS011;3158;52.148;11.568;2023-10-13T22:21:11;2.63;;;2.42;;
6249;SDS011;3158;52.148;11.568;2023-10-13T22:26:12;2.95;;;2.38;;
6249;SDS011;3158;52.148;11.568;2023-10-13T22:31:15;6.43;;;2.30;;
6249;SDS011;3158;52.148;11.568;2023-10-13T22:36:17;3.08;;;2.03;;
6249;SDS011;3158;52.148;11.568;2023-10-13T22:41:25;2.55;;;2.33;;
6249;SDS011;3158;52.148;11.568;2023-10-13T22:46:26;3.55;;;1.95;;
6249;SDS011;3158;52.148;11.568;2023-10-13T22:51:28;1.67;;;1.65;;
6249;SDS011;3158;52.148;11.568;2023-10-13T22:56:31;1.90;;;1.80;;
6249;SDS011;3158;52.148;11.568;2023-10-13T23:01:33;3.72;;;1.70;;
6249;SDS011;3158;52.148;11.568;2023-10-13T23:06:42;3.85;;;2.50;;
6249;SDS011;3158;52.148;11.568;2023-10-13T23:11:50;2.03;;;1.83;;
6249;SDS011;3158;52.148;11.568;2023-10-13T23:16:56;2.33;;;1.50;;
6249;SDS011;3158;52.148;11.568;2023-10-13T23:21:57;1.90;;;1.77;;
6249;SDS011;3158;52.148;11.568;2023-10-13T23:26:59;3.80;;;1.42;;
6249;SDS011;3158;52.148;11.568;2023-10-13T23:32:00;3.75;;;1.60;;
6249;SDS011;3158;52.148;11.568;2023-10-13T23:37:01;2.47;;;1.40;;
6249;SDS011;3158;52.148;11.568;2023-10-13T23:42:03;1.77;;;1.67;;
6249;SDS011;3158;52.148;11.568;2023-10-13T23:47:07;8.88;;;1.73;;
6249;SDS011;3158;52.148;11.568;2023-10-13T23:52:10;2.40;;;2.03;;
6249;SDS011;3158;52.148;11.568;2023-10-13T23:57:11;1.77;;;1.67;;
